Terminal Aerodrome Forecast
Issued by NWS Bismarck, ND

Home | Current Version | Previous Version | Graphics & Text | Print | Product List | Glossary On
Versions: 1 2 3 4 5 6 7 8 9 10 11 12 13 14 15 16 17 18 19 20 21
967
FTUS43 KBIS 221721
TAFISN
TAF
KISN 221721Z 2218/2318 26010KT P6SM SCT012 OVC020
     FM230000 27006KT P6SM BKN012
     FM231100 VRB05KT P6SM BKN008=

USA.gov is the U.S. government's official web portal to all federal, state and local government web resources and services.